sensor_id;sensor_type;location;lat;lon;timestamp;P1;durP1;ratioP1;P2;durP2;ratioP2
11642;SDS011;5877;50.930;6.918;2022-07-23T06:26:59;14.38;;;10.68;;
11642;SDS011;5877;50.930;6.918;2022-07-23T06:29:28;11.30;;;10.18;;
11642;SDS011;5877;50.930;6.918;2022-07-23T06:31:55;11.50;;;10.05;;
11642;SDS011;5877;50.930;6.918;2022-07-23T06:34:23;10.88;;;9.73;;
11642;SDS011;5877;50.930;6.918;2022-07-23T06:36:51;14.98;;;10.32;;
11642;SDS011;5877;50.930;6.918;2022-07-23T06:39:18;14.77;;;11.18;;
11642;SDS011;5877;50.930;6.918;2022-07-23T06:41:47;11.82;;;10.50;;
11642;SDS011;5877;50.930;6.918;2022-07-23T06:44:17;10.02;;;9.05;;
11642;SDS011;5877;50.930;6.918;2022-07-23T06:46:47;11.55;;;9.50;;
11642;SDS011;5877;50.930;6.918;2022-07-23T06:49:14;11.15;;;9.80;;
11642;SDS011;5877;50.930;6.918;2022-07-23T06:51:42;13.23;;;10.00;;
11642;SDS011;5877;50.930;6.918;2022-07-23T06:54:10;10.65;;;9.43;;
11642;SDS011;5877;50.930;6.918;2022-07-23T06:56:39;10.90;;;8.48;;
11642;SDS011;5877;50.930;6.918;2022-07-23T07:28:43;9.52;;;8.38;;
11642;SDS011;5877;50.930;6.918;2022-07-23T07:31:31;7.30;;;6.55;;
11642;SDS011;5877;50.930;6.918;2022-07-23T07:34:18;10.77;;;8.60;;
11642;SDS011;5877;50.930;6.918;2022-07-23T07:37:08;8.07;;;7.28;;
11642;SDS011;5877;50.930;6.918;2022-07-23T07:39:56;8.23;;;7.13;;
11642;SDS011;5877;50.930;6.918;2022-07-23T07:42:44;8.30;;;7.22;;
11642;SDS011;5877;50.930;6.918;2022-07-23T07:45:35;7.97;;;6.45;;
11642;SDS011;5877;50.930;6.918;2022-07-23T07:48:24;6.25;;;5.65;;
11642;SDS011;5877;50.930;6.918;2022-07-23T07:51:13;5.90;;;5.05;;
11642;SDS011;5877;50.930;6.918;2022-07-23T07:54:01;6.55;;;5.68;;
11642;SDS011;5877;50.930;6.918;2022-07-23T07:56:50;8.25;;;6.18;;
11642;SDS011;5877;50.930;6.918;2022-07-23T07:59:37;8.32;;;7.10;;
11642;SDS011;5877;50.930;6.918;2022-07-23T08:02:28;7.15;;;6.25;;
11642;SDS011;5877;50.930;6.918;2022-07-23T08:05:22;7.55;;;6.78;;
11642;SDS011;5877;50.930;6.918;2022-07-23T08:08:14;9.23;;;6.97;;
11642;SDS011;5877;50.930;6.918;2022-07-23T08:11:02;9.93;;;7.88;;
11642;SDS011;5877;50.930;6.918;2022-07-23T08:13:51;10.32;;;8.02;;
11642;SDS011;5877;50.930;6.918;2022-07-23T08:16:38;10.10;;;8.95;;
11642;SDS011;5877;50.930;6.918;2022-07-23T08:19:46;13.23;;;9.02;;
11642;SDS011;5877;50.930;6.918;2022-07-23T08:22:42;10.57;;;9.18;;
11642;SDS011;5877;50.930;6.918;2022-07-23T08:25:38;8.43;;;7.53;;
11642;SDS011;5877;50.930;6.918;2022-07-23T08:28:26;9.80;;;8.00;;
11642;SDS011;5877;50.930;6.918;2022-07-23T08:31:14;9.98;;;7.65;;
11642;SDS011;5877;50.930;6.918;2022-07-23T08:34:26;8.05;;;6.28;;
11642;SDS011;5877;50.930;6.918;2022-07-23T08:37:14;8.77;;;7.07;;
11642;SDS011;5877;50.930;6.918;2022-07-23T08:40:02;8.80;;;7.75;;
11642;SDS011;5877;50.930;6.918;2022-07-23T08:43:12;11.20;;;7.22;;
11642;SDS011;5877;50.930;6.918;2022-07-23T08:46:02;8.40;;;6.93;;
11642;SDS011;5877;50.930;6.918;2022-07-23T08:48:51;8.40;;;7.57;;
11642;SDS011;5877;50.930;6.918;2022-07-23T08:51:39;9.63;;;7.32;;
11642;SDS011;5877;50.930;6.918;2022-07-23T08:54:27;9.32;;;8.30;;
11642;SDS011;5877;50.930;6.918;2022-07-23T08:57:15;11.85;;;8.15;;
11642;SDS011;5877;50.930;6.918;2022-07-23T09:00:04;10.80;;;8.82;;
11642;SDS011;5877;50.930;6.918;2022-07-23T09:02:54;11.07;;;9.20;;
11642;SDS011;5877;50.930;6.918;2022-07-23T09:05:42;9.25;;;8.18;;
11642;SDS011;5877;50.930;6.918;2022-07-23T09:08:39;12.32;;;9.10;;
11642;SDS011;5877;50.930;6.918;2022-07-23T09:11:28;9.48;;;7.80;;
11642;SDS011;5877;50.930;6.918;2022-07-23T09:14:17;10.10;;;9.13;;
11642;SDS011;5877;50.930;6.918;2022-07-23T09:17:26;10.27;;;8.07;;
11642;SDS011;5877;50.930;6.918;2022-07-23T09:20:15;9.57;;;8.10;;
11642;SDS011;5877;50.930;6.918;2022-07-23T09:23:05;10.43;;;8.27;;
11642;SDS011;5877;50.930;6.918;2022-07-23T09:26:00;10.38;;;9.27;;
11642;SDS011;5877;50.930;6.918;2022-07-23T09:28:49;8.30;;;7.45;;
11642;SDS011;5877;50.930;6.918;2022-07-23T09:31:50;10.98;;;8.93;;
11642;SDS011;5877;50.930;6.918;2022-07-23T09:34:47;10.45;;;7.63;;
11642;SDS011;5877;50.930;6.918;2022-07-23T09:37:40;10.20;;;9.05;;
11642;SDS011;5877;50.930;6.918;2022-07-23T09:40:29;10.25;;;8.13;;
11642;SDS011;5877;50.930;6.918;2022-07-23T09:43:27;12.68;;;9.40;;
11642;SDS011;5877;50.930;6.918;2022-07-23T09:46:23;9.27;;;8.20;;
11642;SDS011;5877;50.930;6.918;2022-07-23T09:49:14;10.02;;;8.35;;
11642;SDS011;5877;50.930;6.918;2022-07-23T09:52:09;10.25;;;8.18;;
11642;SDS011;5877;50.930;6.918;2022-07-23T09:55:01;12.73;;;7.47;;
11642;SDS011;5877;50.930;6.918;2022-07-23T09:57:51;11.57;;;8.75;;
11642;SDS011;5877;50.930;6.918;2022-07-23T10:00:41;12.52;;;8.50;;
11642;SDS011;5877;50.930;6.918;2022-07-23T10:03:32;12.10;;;8.75;;
11642;SDS011;5877;50.930;6.918;2022-07-23T10:06:39;9.27;;;7.88;;
11642;SDS011;5877;50.930;6.918;2022-07-23T10:09:46;9.07;;;7.20;;
11642;SDS011;5877;50.930;6.918;2022-07-23T10:13:01;8.67;;;7.43;;
11642;SDS011;5877;50.930;6.918;2022-07-23T10:15:50;9.07;;;6.60;;
11642;SDS011;5877;50.930;6.918;2022-07-23T10:18:41;9.33;;;7.50;;
11642;SDS011;5877;50.930;6.918;2022-07-23T10:37:36;8.50;;;6.77;;
11642;SDS011;5877;50.930;6.918;2022-07-23T10:40:29;9.03;;;6.53;;
11642;SDS011;5877;50.930;6.918;2022-07-23T10:43:19;10.83;;;6.03;;
11642;SDS011;5877;50.930;6.918;2022-07-23T10:46:22;8.67;;;6.53;;
11642;SDS011;5877;50.930;6.918;2022-07-23T10:49:28;7.00;;;5.93;;
11642;SDS011;5877;50.930;6.918;2022-07-23T10:52:25;7.80;;;6.53;;
11642;SDS011;5877;50.930;6.918;2022-07-23T10:58:22;7.73;;;6.93;;
11642;SDS011;5877;50.930;6.918;2022-07-23T11:01:32;7.90;;;7.10;;
11642;SDS011;5877;50.930;6.918;2022-07-23T11:04:48;9.47;;;7.87;;
11642;SDS011;5877;50.930;6.918;2022-07-23T11:10:53;9.37;;;7.77;;
11642;SDS011;5877;50.930;6.918;2022-07-23T11:14:06;7.23;;;5.10;;
11642;SDS011;5877;50.930;6.918;2022-07-23T11:16:55;6.47;;;5.57;;
11642;SDS011;5877;50.930;6.918;2022-07-23T11:22:57;7.87;;;5.93;;
11642;SDS011;5877;50.930;6.918;2022-07-23T11:25:48;6.50;;;5.50;;
11642;SDS011;5877;50.930;6.918;2022-07-23T11:28:36;6.33;;;4.40;;
11642;SDS011;5877;50.930;6.918;2022-07-23T11:31:25;8.67;;;6.20;;
11642;SDS011;5877;50.930;6.918;2022-07-23T11:34:32;6.63;;;5.40;;
11642;SDS011;5877;50.930;6.918;2022-07-23T11:37:38;8.50;;;6.13;;
11642;SDS011;5877;50.930;6.918;2022-07-23T11:40:26;7.07;;;5.70;;
11642;SDS011;5877;50.930;6.918;2022-07-23T11:43:14;5.83;;;5.03;;
11642;SDS011;5877;50.930;6.918;2022-07-23T11:46:03;7.17;;;5.20;;
11642;SDS011;5877;50.930;6.918;2022-07-23T11:49:00;5.37;;;4.30;;
11642;SDS011;5877;50.930;6.918;2022-07-23T11:52:04;6.17;;;4.93;;
11642;SDS011;5877;50.930;6.918;2022-07-23T11:54:53;7.23;;;5.20;;
11642;SDS011;5877;50.930;6.918;2022-07-23T11:57:44;8.27;;;5.20;;
11642;SDS011;5877;50.930;6.918;2022-07-23T12:00:32;4.70;;;4.27;;
11642;SDS011;5877;50.930;6.918;2022-07-23T12:03:26;7.07;;;4.53;;
11642;SDS011;5877;50.930;6.918;2022-07-23T12:06:15;4.00;;;3.40;;
11642;SDS011;5877;50.930;6.918;2022-07-23T12:09:03;7.00;;;3.23;;
11642;SDS011;5877;50.930;6.918;2022-07-23T12:12:00;4.97;;;3.50;;
11642;SDS011;5877;50.930;6.918;2022-07-23T12:14:53;5.40;;;3.90;;
11642;SDS011;5877;50.930;6.918;2022-07-23T12:17:48;4.07;;;3.60;;
11642;SDS011;5877;50.930;6.918;2022-07-23T12:20:42;5.20;;;3.80;;
11642;SDS011;5877;50.930;6.918;2022-07-23T12:23:30;4.43;;;3.80;;
11642;SDS011;5877;50.930;6.918;2022-07-23T12:26:18;4.67;;;4.10;;
11642;SDS011;5877;50.930;6.918;2022-07-23T12:29:06;4.73;;;3.80;;
11642;SDS011;5877;50.930;6.918;2022-07-23T12:31:54;5.47;;;3.87;;
11642;SDS011;5877;50.930;6.918;2022-07-23T12:34:42;4.80;;;4.30;;
11642;SDS011;5877;50.930;6.918;2022-07-23T12:37:34;5.07;;;3.57;;
11642;SDS011;5877;50.930;6.918;2022-07-23T12:40:27;4.03;;;3.60;;
11642;SDS011;5877;50.930;6.918;2022-07-23T12:46:19;3.83;;;3.40;;
11642;SDS011;5877;50.930;6.918;2022-07-23T12:49:08;5.80;;;4.77;;
11642;SDS011;5877;50.930;6.918;2022-07-23T12:51:58;5.00;;;4.20;;
11642;SDS011;5877;50.930;6.918;2022-07-23T12:54:46;6.87;;;3.30;;
11642;SDS011;5877;50.930;6.918;2022-07-23T12:57:45;7.53;;;3.80;;
11642;SDS011;5877;50.930;6.918;2022-07-23T13:04:05;4.03;;;3.13;;
11642;SDS011;5877;50.930;6.918;2022-07-23T13:06:59;6.10;;;3.67;;
11642;SDS011;5877;50.930;6.918;2022-07-23T13:09:51;8.17;;;5.47;;
11642;SDS011;5877;50.930;6.918;2022-07-23T13:12:39;5.47;;;4.27;;
11642;SDS011;5877;50.930;6.918;2022-07-23T13:15:28;5.00;;;3.73;;
11642;SDS011;5877;50.930;6.918;2022-07-23T13:18:16;5.00;;;3.30;;
11642;SDS011;5877;50.930;6.918;2022-07-23T13:21:06;5.87;;;3.70;;
11642;SDS011;5877;50.930;6.918;2022-07-23T13:23:56;6.90;;;3.40;;
11642;SDS011;5877;50.930;6.918;2022-07-23T13:26:44;4.60;;;3.17;;
11642;SDS011;5877;50.930;6.918;2022-07-23T13:29:34;3.10;;;2.80;;
11642;SDS011;5877;50.930;6.918;2022-07-23T13:32:23;4.03;;;3.00;;
11642;SDS011;5877;50.930;6.918;2022-07-23T13:35:11;4.47;;;4.00;;
11642;SDS011;5877;50.930;6.918;2022-07-23T13:37:59;4.23;;;3.50;;
11642;SDS011;5877;50.930;6.918;2022-07-23T13:40:48;4.13;;;3.70;;
11642;SDS011;5877;50.930;6.918;2022-07-23T13:43:37;4.10;;;3.00;;
11642;SDS011;5877;50.930;6.918;2022-07-23T13:46:24;3.23;;;2.93;;
11642;SDS011;5877;50.930;6.918;2022-07-23T13:49:12;6.50;;;3.20;;
11642;SDS011;5877;50.930;6.918;2022-07-23T13:52:00;4.90;;;2.80;;
11642;SDS011;5877;50.930;6.918;2022-07-23T13:54:52;3.53;;;3.10;;
11642;SDS011;5877;50.930;6.918;2022-07-23T13:57:40;3.40;;;3.00;;
11642;SDS011;5877;50.930;6.918;2022-07-23T14:00:27;4.13;;;3.10;;
11642;SDS011;5877;50.930;6.918;2022-07-23T14:03:35;2.50;;;2.30;;
11642;SDS011;5877;50.930;6.918;2022-07-23T14:06:23;4.67;;;2.67;;
11642;SDS011;5877;50.930;6.918;2022-07-23T14:09:19;2.97;;;2.40;;
11642;SDS011;5877;50.930;6.918;2022-07-23T14:12:07;4.77;;;2.83;;
11642;SDS011;5877;50.930;6.918;2022-07-23T14:14:57;3.20;;;2.90;;
11642;SDS011;5877;50.930;6.918;2022-07-23T14:17:45;4.03;;;3.00;;
11642;SDS011;5877;50.930;6.918;2022-07-23T14:20:35;7.43;;;3.10;;
11642;SDS011;5877;50.930;6.918;2022-07-23T14:23:23;3.23;;;2.67;;
11642;SDS011;5877;50.930;6.918;2022-07-23T14:26:11;3.60;;;2.97;;
11642;SDS011;5877;50.930;6.918;2022-07-23T14:29:04;2.73;;;2.47;;
11642;SDS011;5877;50.930;6.918;2022-07-23T14:31:54;3.60;;;2.93;;
11642;SDS011;5877;50.930;6.918;2022-07-23T14:34:49;4.37;;;2.70;;
11642;SDS011;5877;50.930;6.918;2022-07-23T14:37:38;4.00;;;2.73;;
11642;SDS011;5877;50.930;6.918;2022-07-23T14:40:27;4.60;;;2.80;;
11642;SDS011;5877;50.930;6.918;2022-07-23T14:43:33;6.90;;;3.27;;
11642;SDS011;5877;50.930;6.918;2022-07-23T14:46:25;6.20;;;3.17;;
11642;SDS011;5877;50.930;6.918;2022-07-23T14:49:14;5.63;;;3.10;;
11642;SDS011;5877;50.930;6.918;2022-07-23T14:52:03;3.40;;;2.90;;
11642;SDS011;5877;50.930;6.918;2022-07-23T14:54:53;4.33;;;2.70;;
11642;SDS011;5877;50.930;6.918;2022-07-23T14:57:41;3.53;;;2.60;;
11642;SDS011;5877;50.930;6.918;2022-07-23T15:00:31;3.40;;;3.10;;
11642;SDS011;5877;50.930;6.918;2022-07-23T15:03:20;5.00;;;2.73;;
11642;SDS011;5877;50.930;6.918;2022-07-23T15:06:22;3.20;;;2.70;;
11642;SDS011;5877;50.930;6.918;2022-07-23T15:09:11;4.23;;;2.60;;
11642;SDS011;5877;50.930;6.918;2022-07-23T15:11:59;2.93;;;2.63;;
11642;SDS011;5877;50.930;6.918;2022-07-23T15:14:49;2.87;;;2.30;;
11642;SDS011;5877;50.930;6.918;2022-07-23T15:17:38;3.40;;;2.60;;
11642;SDS011;5877;50.930;6.918;2022-07-23T15:20:27;2.73;;;2.40;;
11642;SDS011;5877;50.930;6.918;2022-07-23T15:23:24;3.60;;;2.43;;
11642;SDS011;5877;50.930;6.918;2022-07-23T15:26:14;3.60;;;2.77;;
11642;SDS011;5877;50.930;6.918;2022-07-23T15:29:05;4.80;;;2.90;;
11642;SDS011;5877;50.930;6.918;2022-07-23T15:31:54;4.63;;;2.67;;
11642;SDS011;5877;50.930;6.918;2022-07-23T15:34:45;5.33;;;2.90;;
11642;SDS011;5877;50.930;6.918;2022-07-23T15:37:38;4.70;;;2.70;;
11642;SDS011;5877;50.930;6.918;2022-07-23T15:40:30;4.47;;;2.53;;
11642;SDS011;5877;50.930;6.918;2022-07-23T15:43:19;4.10;;;2.60;;
11642;SDS011;5877;50.930;6.918;2022-07-23T15:46:10;5.27;;;2.57;;
11642;SDS011;5877;50.930;6.918;2022-07-23T15:48:58;3.83;;;2.87;;
11642;SDS011;5877;50.930;6.918;2022-07-23T15:51:49;3.80;;;2.60;;
11642;SDS011;5877;50.930;6.918;2022-07-23T15:54:38;3.90;;;2.63;;
11642;SDS011;5877;50.930;6.918;2022-07-23T15:57:27;3.27;;;2.30;;
11642;SDS011;5877;50.930;6.918;2022-07-23T16:00:17;2.87;;;2.40;;
11642;SDS011;5877;50.930;6.918;2022-07-23T16:03:08;3.33;;;3.03;;
11642;SDS011;5877;50.930;6.918;2022-07-23T16:05:58;3.70;;;3.07;;
11642;SDS011;5877;50.930;6.918;2022-07-23T16:08:47;4.00;;;2.90;;
11642;SDS011;5877;50.930;6.918;2022-07-23T16:11:36;3.83;;;2.70;;
11642;SDS011;5877;50.930;6.918;2022-07-23T16:14:26;3.03;;;2.53;;
11642;SDS011;5877;50.930;6.918;2022-07-23T16:17:16;2.60;;;2.40;;
11642;SDS011;5877;50.930;6.918;2022-07-23T16:20:10;4.17;;;2.80;;
11642;SDS011;5877;50.930;6.918;2022-07-23T16:22:59;5.43;;;2.77;;
11642;SDS011;5877;50.930;6.918;2022-07-23T16:25:48;4.23;;;2.80;;
11642;SDS011;5877;50.930;6.918;2022-07-23T16:28:38;5.43;;;2.57;;
11642;SDS011;5877;50.930;6.918;2022-07-23T16:31:37;2.87;;;2.67;;
11642;SDS011;5877;50.930;6.918;2022-07-23T16:34:26;4.27;;;2.70;;
11642;SDS011;5877;50.930;6.918;2022-07-23T16:40:25;3.77;;;2.57;;
11642;SDS011;5877;50.930;6.918;2022-07-23T17:05:41;3.50;;;3.00;;
11642;SDS011;5877;50.930;6.918;2022-07-23T17:10:28;3.13;;;2.80;;
11642;SDS011;5877;50.930;6.918;2022-07-23T17:13:17;4.83;;;3.00;;
11642;SDS011;5877;50.930;6.918;2022-07-23T17:16:07;4.67;;;3.30;;
11642;SDS011;5877;50.930;6.918;2022-07-23T17:18:56;4.23;;;3.17;;
11642;SDS011;5877;50.930;6.918;2022-07-23T17:21:45;4.17;;;2.73;;
11642;SDS011;5877;50.930;6.918;2022-07-23T17:24:35;4.93;;;2.70;;
11642;SDS011;5877;50.930;6.918;2022-07-23T17:27:26;2.97;;;2.57;;
11642;SDS011;5877;50.930;6.918;2022-07-23T17:30:17;3.50;;;2.43;;
11642;SDS011;5877;50.930;6.918;2022-07-23T17:33:07;2.70;;;2.50;;
11642;SDS011;5877;50.930;6.918;2022-07-23T17:35:56;2.77;;;2.33;;
11642;SDS011;5877;50.930;6.918;2022-07-23T17:38:46;4.00;;;2.80;;
11642;SDS011;5877;50.930;6.918;2022-07-23T17:41:35;3.67;;;2.63;;
11642;SDS011;5877;50.930;6.918;2022-07-23T17:44:24;2.80;;;2.30;;
11642;SDS011;5877;50.930;6.918;2022-07-23T17:47:14;4.17;;;2.67;;
11642;SDS011;5877;50.930;6.918;2022-07-23T17:50:03;3.27;;;2.87;;
11642;SDS011;5877;50.930;6.918;2022-07-23T17:53:08;3.33;;;2.70;;
11642;SDS011;5877;50.930;6.918;2022-07-23T17:55:59;4.13;;;2.60;;
11642;SDS011;5877;50.930;6.918;2022-07-23T17:58:52;3.87;;;2.50;;
11642;SDS011;5877;50.930;6.918;2022-07-23T18:01:41;3.17;;;2.50;;
11642;SDS011;5877;50.930;6.918;2022-07-23T18:04:30;3.50;;;2.37;;
11642;SDS011;5877;50.930;6.918;2022-07-23T18:07:20;3.63;;;2.70;;
11642;SDS011;5877;50.930;6.918;2022-07-23T18:10:13;5.40;;;2.80;;
11642;SDS011;5877;50.930;6.918;2022-07-23T18:13:36;2.90;;;2.60;;
11642;SDS011;5877;50.930;6.918;2022-07-23T18:16:26;2.73;;;2.50;;
11642;SDS011;5877;50.930;6.918;2022-07-23T18:19:15;3.43;;;2.97;;
11642;SDS011;5877;50.930;6.918;2022-07-23T18:22:05;4.83;;;2.87;;
11642;SDS011;5877;50.930;6.918;2022-07-23T18:24:55;3.33;;;2.50;;
11642;SDS011;5877;50.930;6.918;2022-07-23T18:27:43;3.47;;;2.90;;
11642;SDS011;5877;50.930;6.918;2022-07-23T18:30:34;3.90;;;2.80;;
11642;SDS011;5877;50.930;6.918;2022-07-23T18:33:22;3.70;;;2.90;;
11642;SDS011;5877;50.930;6.918;2022-07-23T18:36:09;6.47;;;3.27;;
11642;SDS011;5877;50.930;6.918;2022-07-23T18:38:59;3.20;;;2.83;;
11642;SDS011;5877;50.930;6.918;2022-07-23T18:41:49;5.87;;;2.97;;
11642;SDS011;5877;50.930;6.918;2022-07-23T18:44:38;3.57;;;2.80;;
11642;SDS011;5877;50.930;6.918;2022-07-23T18:47:26;4.70;;;2.70;;
11642;SDS011;5877;50.930;6.918;2022-07-23T18:50:14;5.27;;;2.80;;
11642;SDS011;5877;50.930;6.918;2022-07-23T18:53:02;5.70;;;3.40;;
11642;SDS011;5877;50.930;6.918;2022-07-23T18:55:51;3.63;;;2.90;;
11642;SDS011;5877;50.930;6.918;2022-07-23T18:58:39;3.50;;;3.17;;
11642;SDS011;5877;50.930;6.918;2022-07-23T19:01:26;4.33;;;2.93;;
11642;SDS011;5877;50.930;6.918;2022-07-23T19:04:17;3.33;;;2.83;;
11642;SDS011;5877;50.930;6.918;2022-07-23T19:07:04;4.17;;;2.90;;
11642;SDS011;5877;50.930;6.918;2022-07-23T19:09:52;3.47;;;3.00;;
11642;SDS011;5877;50.930;6.918;2022-07-23T19:12:39;3.27;;;2.80;;
11642;SDS011;5877;50.930;6.918;2022-07-23T19:15:27;4.77;;;2.97;;
11642;SDS011;5877;50.930;6.918;2022-07-23T19:18:14;4.70;;;3.43;;
11642;SDS011;5877;50.930;6.918;2022-07-23T19:21:01;3.83;;;3.20;;
11642;SDS011;5877;50.930;6.918;2022-07-23T19:23:49;3.63;;;3.27;;
11642;SDS011;5877;50.930;6.918;2022-07-23T19:26:37;5.33;;;3.40;;
11642;SDS011;5877;50.930;6.918;2022-07-23T19:29:25;4.93;;;2.97;;
11642;SDS011;5877;50.930;6.918;2022-07-23T19:32:12;3.50;;;3.20;;
11642;SDS011;5877;50.930;6.918;2022-07-23T19:35:00;3.93;;;3.50;;
11642;SDS011;5877;50.930;6.918;2022-07-23T19:37:48;4.60;;;3.60;;
11642;SDS011;5877;50.930;6.918;2022-07-23T19:40:35;4.47;;;3.70;;
11642;SDS011;5877;50.930;6.918;2022-07-23T19:43:23;3.50;;;3.13;;
11642;SDS011;5877;50.930;6.918;2022-07-23T19:46:10;4.50;;;3.60;;
11642;SDS011;5877;50.930;6.918;2022-07-23T19:48:58;4.23;;;3.83;;
11642;SDS011;5877;50.930;6.918;2022-07-23T19:51:47;4.73;;;3.80;;
11642;SDS011;5877;50.930;6.918;2022-07-23T19:54:34;6.33;;;4.30;;
11642;SDS011;5877;50.930;6.918;2022-07-23T19:57:22;5.93;;;5.40;;
11642;SDS011;5877;50.930;6.918;2022-07-23T20:00:09;6.87;;;4.50;;
11642;SDS011;5877;50.930;6.918;2022-07-23T20:02:58;4.67;;;4.20;;
11642;SDS011;5877;50.930;6.918;2022-07-23T20:05:46;7.43;;;4.40;;
11642;SDS011;5877;50.930;6.918;2022-07-23T20:08:33;7.00;;;4.60;;
11642;SDS011;5877;50.930;6.918;2022-07-23T20:11:20;5.40;;;4.90;;
11642;SDS011;5877;50.930;6.918;2022-07-23T20:14:08;5.10;;;4.60;;
11642;SDS011;5877;50.930;6.918;2022-07-23T20:16:57;5.87;;;4.70;;
11642;SDS011;5877;50.930;6.918;2022-07-23T20:19:45;4.83;;;4.40;;
11642;SDS011;5877;50.930;6.918;2022-07-23T20:22:32;6.57;;;5.17;;
11642;SDS011;5877;50.930;6.918;2022-07-23T20:25:27;5.80;;;4.70;;
11642;SDS011;5877;50.930;6.918;2022-07-23T20:28:15;6.90;;;5.10;;
11642;SDS011;5877;50.930;6.918;2022-07-23T20:31:03;6.27;;;5.23;;
11642;SDS011;5877;50.930;6.918;2022-07-23T20:33:53;5.73;;;5.13;;
11642;SDS011;5877;50.930;6.918;2022-07-23T20:36:41;6.40;;;5.80;;
11642;SDS011;5877;50.930;6.918;2022-07-23T20:39:30;6.03;;;5.17;;
11642;SDS011;5877;50.930;6.918;2022-07-23T20:42:17;6.93;;;5.00;;
11642;SDS011;5877;50.930;6.918;2022-07-23T20:45:07;5.97;;;5.00;;
11642;SDS011;5877;50.930;6.918;2022-07-23T20:47:58;5.53;;;4.63;;
11642;SDS011;5877;50.930;6.918;2022-07-23T20:50:45;5.93;;;4.80;;
11642;SDS011;5877;50.930;6.918;2022-07-23T20:53:35;5.27;;;4.27;;
11642;SDS011;5877;50.930;6.918;2022-07-23T20:56:24;5.30;;;4.00;;
11642;SDS011;5877;50.930;6.918;2022-07-23T20:59:12;5.87;;;4.63;;
11642;SDS011;5877;50.930;6.918;2022-07-23T21:02:00;6.67;;;5.43;;
11642;SDS011;5877;50.930;6.918;2022-07-23T21:04:47;6.77;;;4.90;;
11642;SDS011;5877;50.930;6.918;2022-07-23T21:07:36;4.40;;;4.00;;
11642;SDS011;5877;50.930;6.918;2022-07-23T21:10:24;5.80;;;5.20;;
11642;SDS011;5877;50.930;6.918;2022-07-23T21:13:11;7.97;;;5.00;;
11642;SDS011;5877;50.930;6.918;2022-07-23T21:16:03;6.73;;;5.53;;
11642;SDS011;5877;50.930;6.918;2022-07-23T21:18:51;8.53;;;5.70;;
11642;SDS011;5877;50.930;6.918;2022-07-23T21:21:39;8.13;;;7.10;;
11642;SDS011;5877;50.930;6.918;2022-07-23T21:24:26;6.23;;;5.63;;
11642;SDS011;5877;50.930;6.918;2022-07-23T21:27:14;7.77;;;6.97;;
11642;SDS011;5877;50.930;6.918;2022-07-23T21:30:02;8.93;;;6.03;;
11642;SDS011;5877;50.930;6.918;2022-07-23T21:32:51;8.67;;;6.37;;
11642;SDS011;5877;50.930;6.918;2022-07-23T21:35:38;7.50;;;6.40;;
11642;SDS011;5877;50.930;6.918;2022-07-23T21:38:26;9.63;;;6.47;;
11642;SDS011;5877;50.930;6.918;2022-07-23T21:41:13;8.47;;;6.63;;
11642;SDS011;5877;50.930;6.918;2022-07-23T21:44:07;11.33;;;7.27;;
11642;SDS011;5877;50.930;6.918;2022-07-23T21:46:54;7.17;;;6.20;;
11642;SDS011;5877;50.930;6.918;2022-07-23T21:49:42;6.63;;;5.93;;
11642;SDS011;5877;50.930;6.918;2022-07-23T21:52:29;8.87;;;6.67;;
11642;SDS011;5877;50.930;6.918;2022-07-23T21:55:17;7.63;;;6.80;;
11642;SDS011;5877;50.930;6.918;2022-07-23T21:58:05;6.97;;;6.27;;
11642;SDS011;5877;50.930;6.918;2022-07-23T22:00:55;7.03;;;6.33;;
11642;SDS011;5877;50.930;6.918;2022-07-23T22:03:44;6.70;;;6.10;;
11642;SDS011;5877;50.930;6.918;2022-07-23T22:06:31;8.17;;;6.43;;
11642;SDS011;5877;50.930;6.918;2022-07-23T22:09:19;8.63;;;6.47;;
11642;SDS011;5877;50.930;6.918;2022-07-23T22:12:07;6.63;;;6.03;;
11642;SDS011;5877;50.930;6.918;2022-07-23T22:14:54;6.57;;;5.97;;
11642;SDS011;5877;50.930;6.918;2022-07-23T22:17:45;6.23;;;5.63;;
11642;SDS011;5877;50.930;6.918;2022-07-23T22:20:33;7.10;;;6.37;;
11642;SDS011;5877;50.930;6.918;2022-07-23T22:23:20;7.70;;;6.40;;
11642;SDS011;5877;50.930;6.918;2022-07-23T22:26:08;7.20;;;6.33;;
11642;SDS011;5877;50.930;6.918;2022-07-23T22:28:55;6.40;;;5.70;;
11642;SDS011;5877;50.930;6.918;2022-07-23T22:31:43;6.60;;;5.90;;
11642;SDS011;5877;50.930;6.918;2022-07-23T22:34:31;7.73;;;6.97;;
11642;SDS011;5877;50.930;6.918;2022-07-23T22:37:19;7.27;;;6.03;;
11642;SDS011;5877;50.930;6.918;2022-07-23T22:40:06;10.63;;;7.63;;
11642;SDS011;5877;50.930;6.918;2022-07-23T22:42:54;9.80;;;7.47;;
11642;SDS011;5877;50.930;6.918;2022-07-23T22:45:42;7.27;;;6.57;;
11642;SDS011;5877;50.930;6.918;2022-07-23T22:48:30;7.10;;;6.40;;
11642;SDS011;5877;50.930;6.918;2022-07-23T22:51:17;7.40;;;6.57;;
11642;SDS011;5877;50.930;6.918;2022-07-23T22:54:07;10.07;;;6.40;;
11642;SDS011;5877;50.930;6.918;2022-07-23T22:56:54;7.27;;;6.40;;
11642;SDS011;5877;50.930;6.918;2022-07-23T22:59:42;7.20;;;6.43;;
11642;SDS011;5877;50.930;6.918;2022-07-23T23:02:30;7.33;;;6.47;;
11642;SDS011;5877;50.930;6.918;2022-07-23T23:05:23;7.03;;;5.90;;
11642;SDS011;5877;50.930;6.918;2022-07-23T23:08:10;7.37;;;6.30;;
11642;SDS011;5877;50.930;6.918;2022-07-23T23:10:58;6.73;;;6.03;;
11642;SDS011;5877;50.930;6.918;2022-07-23T23:13:45;6.73;;;6.13;;
11642;SDS011;5877;50.930;6.918;2022-07-23T23:16:33;7.10;;;6.40;;
11642;SDS011;5877;50.930;6.918;2022-07-23T23:19:26;8.13;;;6.93;;
11642;SDS011;5877;50.930;6.918;2022-07-23T23:22:13;6.57;;;5.87;;
11642;SDS011;5877;50.930;6.918;2022-07-23T23:25:01;6.67;;;6.07;;
11642;SDS011;5877;50.930;6.918;2022-07-23T23:27:48;7.33;;;5.70;;
11642;SDS011;5877;50.930;6.918;2022-07-23T23:30:36;6.97;;;5.30;;
11642;SDS011;5877;50.930;6.918;2022-07-23T23:33:23;8.20;;;5.70;;
11642;SDS011;5877;50.930;6.918;2022-07-23T23:36:11;7.23;;;5.93;;
11642;SDS011;5877;50.930;6.918;2022-07-23T23:38:59;6.17;;;5.67;;
11642;SDS011;5877;50.930;6.918;2022-07-23T23:41:47;5.83;;;5.23;;
11642;SDS011;5877;50.930;6.918;2022-07-23T23:44:34;7.60;;;5.50;;
11642;SDS011;5877;50.930;6.918;2022-07-23T23:47:22;6.23;;;5.07;;
11642;SDS011;5877;50.930;6.918;2022-07-23T23:50:09;6.30;;;5.37;;
11642;SDS011;5877;50.930;6.918;2022-07-23T23:52:57;9.30;;;5.53;;
11642;SDS011;5877;50.930;6.918;2022-07-23T23:55:44;8.27;;;5.67;;
11642;SDS011;5877;50.930;6.918;2022-07-23T23:58:32;5.73;;;5.23;;
